< Typhoon 197003 1970 Season Typhoon 197005 >
Typhoon 197004 (RUBY)
General InformationTrack Information on Google Maps || Disaster Info.ResourceGoogle EarthGE AnimationAtom FeedGeoJSON
Detalied Best Track (Time Zone = UTC)
Year Month Day Hour Lat. Long. Pressure (hPa) Wind (kt) Class Image Chart
1970 7 11 12 9.0 129.0 1002 0 2 -- Chart
1970 7 11 18 9.5 128.5 1002 0 2 -- Chart
1970 7 12 00 10.2 128.0 1002 0 2 -- Chart
1970 7 12 06 10.9 127.7 1000 0 2 -- Chart
1970 7 12 12 11.8 127.0 1000 0 2 -- Chart
1970 7 12 18 12.9 126.4 998 0 2 -- Chart
1970 7 13 00 14.1 125.5 995 0 9 -- Chart
1970 7 13 06 15.1 124.5 990 0 9 -- Chart
1970 7 13 12 16.4 123.5 985 0 9 -- Chart
1970 7 13 18 17.7 122.2 985 0 9 -- Chart
1970 7 14 00 18.4 121.2 990 0 9 -- Chart
1970 7 14 06 19.1 119.8 990 0 9 -- Chart
1970 7 14 12 19.3 119.0 990 0 9 -- Chart
1970 7 14 18 19.6 118.3 990 0 9 -- Chart
1970 7 15 00 19.9 117.5 985 0 9 -- Chart
1970 7 15 06 20.2 116.7 985 0 9 -- Chart
1970 7 15 12 20.7 116.2 985 0 9 -- Chart
1970 7 15 18 21.2 115.6 985 0 9 -- Chart
1970 7 16 00 22.0 114.9 985 0 9 -- Chart
1970 7 16 06 23.4 114.4 990 0 9 -- Chart
1970 7 16 12 25.0 114.3 996 0 2 -- Chart
1970 7 16 18 26.2 114.3 998 0 2 -- Chart
1970 7 17 00 28.0 114.4 1000 0 2 -- Chart
1970 7 17 06 29.2 115.0 1000 0 2 -- Chart
1970 7 17 12 31.3 117.0 1000 0 6 -- Chart
1970 7 17 18 32.4 122.0 1000 0 6 -- Chart
1970 7 18 00 34.0 127.0 996 0 6 -- Chart
1970 7 18 06 37.0 132.0 994 0 6 -- Chart
1970 7 18 12 39.0 136.0 994 0 6 -- Chart
1970 7 18 18 41.0 139.0 994 0 6 -- Chart
1970 7 19 00 42.0 140.2 994 0 6 -- Chart
1970 7 19 06 42.7 142.0 994 0 6 -- Chart
1970 7 19 12 43.0 144.1 996 0 6 -- Chart
1970 7 19 18 43.4 146.3 998 0 6 -- Chart
1970 7 20 00 44.0 148.0 998 0 6 -- Chart
1970 7 20 06 45.3 149.7 1000 0 6 -- Chart
1970 7 20 12 47.0 150.9 1000 0 6 -- Chart
1970 7 20 18 47.4 152.5 1000 0 6 -- Chart
1970 7 21 00 48.0 154.1 998 0 6 -- Chart
1970 7 21 06 48.7 156.1 998 0 6 -- Chart
1970 7 21 12 49.2 158.3 996 0 6 -- Chart
1970 7 21 18 49.7 160.7 996 0 6 -- Chart
1970 7 22 00 50.0 163.0 996 0 6 -- Chart
1970 7 22 06 51.0 167.0 998 0 6 -- Chart
1970 7 22 12 52.0 172.0 996 0 6 -- Chart
1970 7 22 18 52.0 177.0 994 0 6 -- Chart
Japan Meteorological Agency Best Track Data | Correction Date : 1989-06-01
< Typhoon 197003 1970 Season Typhoon 197005 >

Help